Latest Weather Observations for Holsworthy

IDN60801

Issued at 7:42 pm EDT Sunday 1 February 2015 (issued every 30 minutes, with the page automatically refreshed every 10 minutes)

About weather observations | Map of weather stations | Latest weather observations for NSW | Other Formats
Station Details ID: 066161 Name: HOLSWORTHY AERODROME AWS Lat: -33.99 Lon: 150.95 Height: 68.16 m
Data from the previous 72 hours. | See also: Recent months at Holsworthy
Date/Time
EDT
Temp
°C
App
Temp
°C
Dew
Point
Rel
Hum
%
Delta-T
°C
Wind Press
QNH
hPa
Press
MSL
hPa
Rain
since 9 am
mm
Dir
 
Spd
km/h
Gust
km/h
Spd
kts
Gust
kts
01/07:30pm 20.5 19.5 15.7 74 2.9 SSE 15 26 8 14 1011.0 1010.7 0.0
01/07:00pm 21.1 19.6 15.2 69 3.5 SSE 17 24 9 13 1010.7 1010.4 0.0
01/06:30pm 21.8 19.5 14.7 64 4.2 SSE 20 30 11 16 1009.9 1009.6 0.0
01/06:00pm 22.9 20.3 15.0 61 4.7 SE 22 30 12 16 1009.8 1009.5 0.0
01/05:30pm 22.8 20.2 14.9 61 4.7 SSE 22 33 12 18 1009.7 1009.4 0.0
01/05:00pm 21.9 19.6 15.7 68 3.7 SSE 22 32 12 17 1009.2 1008.9 0.0
01/04:30pm 22.5 19.4 14.4 60 4.8 SE 24 33 13 18 1009.1 1008.8 0.0
01/04:00pm 23.5 21.1 15.3 60 4.9 SE 22 32 12 17 1009.3 1009.0 0.0
01/03:30pm 24.2 20.2 15.1 56 5.5 SE 30 39 16 21 1009.4 1009.1 0.0
01/03:00pm 24.1 20.5 15.3 58 5.3 SE 28 39 15 21 1009.3 1009.0 0.0
01/02:30pm 23.8 20.5 15.0 57 5.3 SE 26 35 14 19 1009.2 1008.9 0.0
01/02:00pm 24.2 22.1 16.2 61 4.9 ESE 22 32 12 17 1009.3 1009.0 0.0
01/01:30pm 24.5 22.9 16.0 59 5.2 SE 19 28 10 15 1009.3 1009.0 0.0
01/01:00pm 23.1 21.1 15.4 62 4.6 SE 20 28 11 15 1009.6 1009.3 0.0
01/12:30pm 24.7 24.5 14.8 54 5.9 S 9 13 5 7 1009.6 1009.3 0.0
01/12:00pm 24.0 24.4 14.7 56 5.5 NNE 6 11 3 6 1009.8 1009.5 0.0
01/11:30am 25.6 26.0 16.4 56 5.7 NE 9 15 5 8 1009.9 1009.6 0.0
01/11:00am 23.9 23.9 15.1 58 5.3 SSE 9 13 5 7 1010.1 1009.8 0.0
01/10:30am 22.9 23.1 14.7 60 4.9 NNE 7 13 4 7 1010.2 1009.9 0.0
01/10:00am 21.9 21.6 14.3 62 4.5 SE 9 15 5 8 1010.3 1010.0 0.0
01/09:30am 21.8 21.6 14.7 64 4.2 S 9 13 5 7 1010.1 1009.8 0.0
01/09:00am 21.6 22.0 15.4 68 3.7 SSE 7 9 4 5 1009.8 1009.5 0.0
01/08:30am 20.3 22.1 16.5 79 2.3 WNW 2 7 1 4 1009.7 1009.4 0.0
01/08:00am 17.8 18.8 15.4 86 1.4 WSW 4 6 2 3 1009.6 1009.3 0.0
01/07:30am 16.8 17.3 15.0 89 1.0 WSW 6 7 3 4 1009.3 1009.0 0.0
01/07:00am 16.1 17.2 14.6 91 0.9 W 2 7 1 4 1009.1 1008.8 0.0
01/06:30am 15.5 15.1 14.0 91 0.8 WSW 9 9 5 5 1008.8 1008.5 0.0
01/06:00am 15.9 15.5 14.1 89 1.0 WSW 9 11 5 6 1008.6 1008.3 0.0
01/05:30am 16.5 16.2 14.3 87 1.3 SSW 9 11 5 6 1008.1 1007.8 0.0
01/05:00am 17.3 17.5 14.6 84 1.6 SW 7 11 4 6 1008.0 1007.7 0.0
01/04:30am 17.0 16.7 14.3 84 1.5 SW 9 11 5 6 1008.2 1007.9 0.0
01/04:00am 17.0 16.7 14.5 85 1.4 WSW 9 13 5 7 1008.2 1007.9 0.0
01/03:30am 17.1 17.2 14.0 82 1.8 WSW 6 7 3 4 1008.1 1007.8 0.0
01/03:00am 18.6 18.7 14.5 77 2.4 SW 7 13 4 7 1008.3 1008.0 0.0
01/02:30am 19.5 18.9 14.7 74 2.8 S 11 13 6 7 1008.6 1008.3 0.0
01/02:00am 19.4 19.0 14.2 72 3.0 S 9 13 5 7 1008.8 1008.5 0.0
01/01:30am 19.2 18.8 14.2 73 2.9 S 9 11 5 6 1008.9 1008.6 0.0
01/01:00am 19.1 18.7 14.1 73 2.9 S 9 11 5 6 1009.1 1008.8 0.0
01/12:30am 19.2 18.8 14.2 73 2.9 S 9 11 5 6 1009.4 1009.1 0.0
01/12:00am 18.9 18.7 14.6 76 2.5 SW 9 11 5 6 1009.8 1009.5 0.0
 
Date/Time
EDT
Temp
°C
App
Temp
°C
Dew
Point
Rel
Hum
%
Delta-T
°C
Wind Press
QNH
hPa
Press
MSL
hPa
Rain
since 9 am
mm
Dir
 
Spd
km/h
Gust
km/h
Spd
kts
Gust
kts
31/11:30pm 18.9 19.0 14.4 75 2.6 SW 7 9 4 5 1009.6 1009.3 0.0
31/11:00pm 19.1 20.0 15.0 77 2.4 SW 4 6 2 3 1009.7 1009.4 0.0
31/10:30pm 19.3 19.3 14.1 72 3.0 S 7 9 4 5 1009.6 1009.3 0.0
31/10:00pm 19.2 19.1 13.8 71 3.1 S 7 9 4 5 1009.3 1009.0 0.0
31/09:30pm 19.1 19.0 13.9 72 3.0 S 7 9 4 5 1009.1 1008.8 0.0
31/09:00pm 19.1 18.7 13.1 68 3.4 S 7 9 4 5 1008.7 1008.4 0.0
31/08:30pm 20.2 20.0 12.9 63 4.1 SSE 6 7 3 4 1008.2 1007.9 0.0
31/08:00pm 21.1 19.8 12.5 58 4.9 SE 11 15 6 8 1007.9 1007.6 0.0
31/07:30pm 21.7 20.1 12.8 57 5.1 SE 13 17 7 9 1007.7 1007.4 0.0
31/07:00pm 22.0 19.6 12.8 56 5.3 SE 17 22 9 12 1007.3 1007.0 0.0
31/06:30pm 22.9 20.7 13.4 55 5.5 SE 17 22 9 12 1006.7 1006.4 0.0
31/06:00pm 22.9 20.2 12.8 53 5.8 ESE 19 24 10 13 1006.3 1006.0 0.0
31/05:30pm 23.4 19.8 13.0 52 6.0 SE 24 35 13 19 1006.2 1005.9 0.0
31/05:00pm 22.9 19.7 11.9 50 6.2 ESE 20 30 11 16 1006.3 1006.0 0.0
31/04:30pm 23.1 19.5 11.8 49 6.4 ESE 22 30 12 16 1006.4 1006.1 0.0
31/04:00pm 25.0 22.1 12.2 44 7.4 ESE 19 28 10 15 1006.1 1005.8 0.0
31/03:30pm 24.1 20.3 11.1 44 7.3 ENE 22 33 12 18 1005.9 1005.6 0.0
31/03:00pm 25.7 22.6 11.5 41 8.1 ENE 19 28 10 15 1005.5 1005.2 0.0
31/02:30pm 25.0 22.0 10.5 40 8.1 E 17 24 9 13 1005.7 1005.4 0.0
31/02:00pm 25.7 22.9 12.5 44 7.7 ESE 19 26 10 14 1006.0 1005.7 0.0
31/01:30pm 25.4 23.4 8.8 35 9.0 NNW 9 15 5 8 1006.3 1006.0 0.0
31/01:00pm 26.2 25.2 12.3 42 8.1 W 9 19 5 10 1006.5 1006.2 0.0
31/12:30pm 24.8 22.6 9.5 38 8.4 N 11 19 6 10 1006.8 1006.5 0.0
31/12:00pm 24.1 21.9 9.3 39 8.1 NNE 11 17 6 9 1007.3 1007.0 0.0
31/11:30am 23.7 22.5 9.7 41 7.6 WSW 6 11 3 6 1007.6 1007.3 0.0
31/11:00am 23.4 21.6 9.4 41 7.6 SSE 9 13 5 7 1007.9 1007.6 0.0
31/10:30am 22.5 20.7 9.3 43 7.1 NNE 9 13 5 7 1008.2 1007.9 0.0
31/10:00am 22.2 20.5 10.0 46 6.7 SE 9 13 5 7 1008.2 1007.9 0.0
31/09:30am 21.2 20.6 10.4 50 5.9 NNE 4 9 2 5 1008.3 1008.0 0.0
31/09:00am 20.2 20.9 13.4 65 3.9 N 2 7 1 4 1008.4 1008.1 0.0
31/08:30am 18.1 18.8 12.3 69 3.2 CALM 0 0 0 0 1008.3 1008.0 0.0
31/08:00am 16.2 16.6 11.2 72 2.7 CALM 0 0 0 0 1008.4 1008.1 0.0
31/07:30am 14.6 15.0 11.2 80 1.8 CALM 0 0 0 0 1008.0 1007.7 0.0
31/07:00am 13.7 14.4 12.1 90 0.9 CALM 0 0 0 0 1007.8 1007.5 0.0
31/06:30am 12.7 12.0 11.4 92 0.7 W 6 6 3 3 1007.6 1007.3 0.0
31/06:00am 13.0 12.7 11.6 91 0.7 N 4 6 2 3 1007.4 1007.1 0.0
31/05:30am 13.6 13.1 12.0 90 0.9 S 6 9 3 5 1007.1 1006.8 0.0
31/05:00am 13.9 13.4 12.5 91 0.8 SW 7 9 4 5 1007.1 1006.8 0.0
31/04:30am 14.0 13.4 12.4 90 0.9 SW 7 11 4 6 1006.9 1006.6 0.0
31/04:00am 14.6 13.4 12.8 89 1.0 SW 11 13 6 7 1006.8 1006.5 0.0
31/03:30am 14.6 13.8 12.8 89 1.0 SW 9 13 5 7 1006.8 1006.5 0.0
31/03:00am 14.8 14.0 13.0 89 1.0 SSW 9 11 5 6 1006.7 1006.4 0.0
31/02:30am 15.5 15.2 13.3 87 1.2 S 7 9 4 5 1006.7 1006.4 0.0
31/02:00am 15.9 15.7 13.6 86 1.3 SSW 7 9 4 5 1007.0 1006.7 0.0
31/01:30am 16.3 16.2 13.4 83 1.6 SW 6 7 3 4 1007.4 1007.1 0.0
31/01:00am 17.0 18.1 13.5 80 2.0 CALM 0 0 0 0 1007.7 1007.4 0.0
31/12:30am 18.0 19.2 13.9 77 2.3 CALM 0 0 0 0 1007.8 1007.5 0.0
31/12:00am 19.1 19.4 14.4 74 2.7 SSW 6 7 3 4 1007.9 1007.6 0.0
 
Date/Time
EDT
Temp
°C
App
Temp
°C
Dew
Point
Rel
Hum
%
Delta-T
°C
Wind Press
QNH
hPa
Press
MSL
hPa
Rain
since 9 am
mm
Dir
 
Spd
km/h
Gust
km/h
Spd
kts
Gust
kts
30/11:30pm 18.7 20.2 14.6 77 2.4 CALM 0 6 0 3 1007.9 1007.6 0.0
30/11:00pm 19.2 20.8 14.9 76 2.5 CALM 0 6 0 3 1007.9 1007.6 0.0
30/10:30pm 19.5 20.9 14.3 72 3.0 CALM 0 7 0 4 1007.8 1007.5 0.0
30/10:00pm 19.9 19.6 14.3 70 3.3 SSE 9 15 5 8 1007.6 1007.3 0.0
30/09:30pm 20.0 19.7 14.4 70 3.3 SSE 9 17 5 9 1007.4 1007.1 0.0
30/09:00pm 20.1 19.8 14.5 70 3.3 SSE 9 17 5 9 1007.0 1006.7 0.0
30/08:30pm 20.2 19.2 14.6 70 3.3 SSE 13 20 7 11 1006.7 1006.4 0.0
30/08:00pm 20.5 18.7 14.4 68 3.6 SSE 17 24 9 13 1006.5 1006.2 0.0
30/07:30pm 20.8 18.8 14.0 65 3.9 SSE 17 22 9 12 1006.2 1005.9 0.0
30/07:00pm 21.7 18.8 12.8 57 5.1 SSE 20 30 11 16 1005.9 1005.6 0.0
30/06:30pm 22.4 19.5 12.9 55 5.5 SE 20 26 11 14 1005.5 1005.2 0.0
30/06:00pm 23.1 19.9 11.8 49 6.4 SE 20 26 11 14 1005.3 1005.0 0.0
30/05:30pm 25.2 21.9 8.2 34 9.1 SW 15 20 8 11 1005.0 1004.7 0.0
30/05:00pm 25.9 22.6 8.0 32 9.6 SW 15 24 8 13 1005.0 1004.7 0.0
30/04:30pm 26.0 22.2 7.6 31 9.8 WSW 17 30 9 16 1005.2 1004.9 0.0
30/04:00pm 26.6 23.5 7.1 29 10.4 WSW 13 19 7 10 1005.3 1005.0 0.0
30/03:30pm 25.2 20.9 6.9 31 9.6 W 19 32 10 17 1005.6 1005.3 0.0
30/03:00pm 25.9 21.4 8.4 33 9.5 WSW 22 35 12 19 1005.7 1005.4 0.0
30/02:30pm 25.4 21.3 8.0 33 9.3 SW 19 35 10 19 1006.0 1005.7 0.0
30/02:00pm 24.6 20.1 6.8 32 9.3 SW 20 35 11 19 1006.6 1006.3 0.0
30/01:30pm 24.1 19.2 6.8 33 9.0 WSW 22 39 12 21 1007.1 1006.8 0.0
30/01:00pm 23.8 19.8 9.0 39 8.0 SW 20 37 11 20 1007.4 1007.1 0.0
30/12:30pm 23.6 19.4 9.6 41 7.6 SW 22 33 12 18 1007.7 1007.4 0.0
30/12:00pm 22.5 18.2 7.9 39 7.7 WSW 20 33 11 18 1008.0 1007.7 0.0
30/11:30am 23.1 19.4 10.2 44 7.1 SW 20 32 11 17 1008.5 1008.2 0.0
30/11:00am 22.4 19.2 9.9 45 6.8 SW 17 24 9 13 1008.9 1008.6 0.0
30/10:30am 20.9 17.7 9.8 49 6.0 SSW 17 26 9 14 1009.1 1008.8 0.0
30/10:00am 20.1 16.8 9.7 51 5.6 WSW 17 32 9 17 1009.5 1009.2 0.0
30/09:30am 18.8 16.0 8.5 51 5.3 WSW 13 20 7 11 1009.7 1009.4 0.0
30/09:00am 17.7 14.1 8.3 54 4.8 W 17 24 9 13 1009.8 1009.5 0.0
30/08:30am 16.6 14.6 10.0 65 3.5 W 11 15 6 8 1010.0 1009.7 0.0
30/08:00am 14.7 13.5 9.5 71 2.7 W 6 9 3 5 1009.9 1009.6 0.0
30/07:30am 13.1 11.7 9.0 76 2.1 W 6 7 3 4 1009.8 1009.5 0.0
30/07:00am 11.9 12.0 10.3 90 0.8 CALM 0 0 0 0 1009.6 1009.3 0.0
30/06:30am 10.8 10.7 9.4 91 0.7 CALM 0 0 0 0 1009.5 1009.2 0.0
30/06:00am 10.8 10.6 9.2 90 0.8 CALM 0 0 0 0 1009.2 1008.9 0.0
30/05:30am 11.1 9.8 9.2 88 1.0 SW 6 7 3 4 1009.3 1009.0 0.0
30/05:00am 11.6 10.4 9.5 87 1.1 SSW 6 7 3 4 1009.1 1008.8 0.0
30/04:30am 11.9 10.6 9.8 87 1.1 SW 7 11 4 6 1009.2 1008.9 0.0
30/04:00am 12.0 10.8 10.2 89 0.9 SW 7 7 4 4 1009.3 1009.0 0.0
30/03:30am 12.1 10.9 10.3 89 0.9 WSW 7 11 4 6 1009.6 1009.3 0.0
30/03:00am 12.0 10.7 10.1 88 1.0 SW 7 9 4 5 1009.8 1009.5 0.0
30/02:30am 12.6 11.5 10.1 85 1.3 SW 6 7 3 4 1010.1 1009.8 0.0
30/02:00am 13.1 12.0 10.5 84 1.4 SSW 7 9 4 5 1010.3 1010.0 0.0
30/01:30am 13.3 11.8 10.7 84 1.4 SW 9 11 5 6 1010.7 1010.4 0.0
30/01:00am 13.6 12.5 10.8 83 1.5 WSW 7 9 4 5 1010.9 1010.6 0.0
30/12:30am 13.6 12.2 10.9 84 1.4 WSW 9 11 5 6 1011.2 1010.9 0.0
30/12:00am 14.0 13.0 11.0 82 1.6 WSW 7 9 4 5 1011.4 1011.1 0.0
 
Date/Time
EDT
Temp
°C
App
Temp
°C
Dew
Point
Rel
Hum
%
Delta-T
°C
Wind Press
QNH
hPa
Press
MSL
hPa
Rain
since 9 am
mm
Dir
 
Spd
km/h
Gust
km/h
Spd
kts
Gust
kts
29/11:30pm 14.7 13.3 10.9 78 2.0 SW 9 11 5 6 1011.8 1011.5 0.0
29/11:00pm 15.2 14.1 10.8 75 2.3 SW 7 11 4 6 1012.0 1011.7 0.0
29/10:30pm 15.9 14.5 10.9 72 2.7 SW 9 11 5 6 1012.0 1011.7 0.0
29/10:00pm 16.8 15.4 10.9 68 3.2 SW 9 13 5 7 1012.1 1011.8 0.0
29/09:30pm 17.4 15.1 10.5 64 3.7 S 13 22 7 12 1011.9 1011.6 0.0
29/09:00pm 18.0 15.0 10.6 62 4.0 SSW 17 35 9 19 1011.8 1011.5 0.0
29/08:30pm 18.4 16.3 11.2 63 3.9 SSW 13 19 7 10 1011.6 1011.3 0.0
29/08:00pm 18.7 15.5 11.3 62 4.1 S 19 28 10 15 1011.2 1010.9 0.0

Other Formats:

Comma delimited format used in spreadsheet applications
http://www.bom.gov.au/fwo/IDN60801/IDN60801.95761.axf

JavaScript Object Notation format (JSON) in row-major order
http://www.bom.gov.au/fwo/IDN60801/IDN60801.95761.json